createdAt,value
2023-04-23T00:01:48.224Z,100113.40
2023-04-23T00:04:19.407Z,100111.81
2023-04-23T00:06:48.126Z,100116.14
2023-04-23T00:09:16.934Z,100112.18
2023-04-23T00:11:45.164Z,100112.08
2023-04-23T00:14:13.487Z,100111.61
2023-04-23T00:16:42.225Z,100109.38
2023-04-23T00:19:10.039Z,100113.02
2023-04-23T00:21:38.108Z,100107.83
2023-04-23T00:24:06.614Z,100108.16
2023-04-23T00:26:34.457Z,100107.47
2023-04-23T00:29:02.244Z,100110.10
2023-04-23T00:31:30.060Z,100107.69
2023-04-23T00:33:57.902Z,100109.34
2023-04-23T00:36:27.048Z,100104.97
2023-04-23T00:38:54.914Z,100105.42
2023-04-23T00:41:23.651Z,100102.46
2023-04-23T00:43:53.204Z,100103.02
2023-04-23T00:46:21.976Z,100101.27
2023-04-23T00:48:50.920Z,100095.16
2023-04-23T00:51:18.767Z,100095.08
2023-04-23T00:53:47.254Z,100095.26
2023-04-23T00:56:15.679Z,100100.14
2023-04-23T00:58:44.964Z,100099.67
2023-04-23T01:01:14.228Z,100100.02
2023-04-23T01:03:43.178Z,100100.16
2023-04-23T01:06:11.092Z,100097.65
2023-04-23T01:08:39.162Z,100095.84
2023-04-23T01:11:07.506Z,100093.39
2023-04-23T01:13:35.792Z,100095.84
2023-04-23T01:16:04.101Z,100099.46
2023-04-23T01:18:32.047Z,100101.15
2023-04-23T01:20:59.948Z,100101.23
2023-04-23T01:23:28.140Z,100100.13
2023-04-23T01:25:56.277Z,100098.35
2023-04-23T01:28:24.506Z,100094.83
2023-04-23T01:30:53.140Z,100096.02
2023-04-23T01:33:21.244Z,100098.52
2023-04-23T01:35:49.469Z,100096.48
2023-04-23T01:38:18.100Z,100093.60
2023-04-23T01:40:45.987Z,100095.66
2023-04-23T01:43:14.384Z,100098.08
2023-04-23T01:45:42.467Z,100093.30
2023-04-23T01:48:10.360Z,100093.75
2023-04-23T01:50:39.259Z,100094.30
2023-04-23T01:53:06.992Z,100096.86
2023-04-23T01:55:38.005Z,100094.88
2023-04-23T01:58:06.665Z,100091.77
2023-04-23T02:00:34.435Z,100095.46
2023-04-23T02:03:02.581Z,100095.08
2023-04-23T02:05:30.558Z,100096.48
2023-04-23T02:07:58.363Z,100098.47
2023-04-23T02:10:26.171Z,100099.50
2023-04-23T02:12:58.053Z,100097.47
2023-04-23T02:15:25.926Z,100099.17
2023-04-23T02:17:54.496Z,100098.02
2023-04-23T02:20:22.662Z,100092.75
2023-04-23T02:22:51.214Z,100093.12
2023-04-23T02:25:22.094Z,100093.23
2023-04-23T02:27:50.666Z,100095.63
2023-04-23T02:30:19.567Z,100098.80
2023-04-23T02:32:47.611Z,100098.34
2023-04-23T02:35:15.420Z,100095.63
2023-04-23T02:37:43.222Z,100096.77
2023-04-23T02:40:11.700Z,100092.05
2023-04-23T02:42:40.316Z,100092.63
2023-04-23T02:45:10.175Z,100091.31
2023-04-23T02:47:39.595Z,100090.48
2023-04-23T02:50:08.117Z,100089.71
2023-04-23T02:52:35.972Z,100087.10
2023-04-23T02:55:04.978Z,100089.34
2023-04-23T02:57:33.050Z,100088.66
2023-04-23T03:00:01.190Z,100088.75
2023-04-23T03:02:35.534Z,100092.09
2023-04-23T03:05:04.733Z,100090.48
2023-04-23T03:07:32.452Z,100088.27
2023-04-23T03:10:00.217Z,100089.39
2023-04-23T03:12:27.959Z,100089.69
2023-04-23T03:14:56.038Z,100085.30
2023-04-23T03:17:24.730Z,100087.85
2023-04-23T03:19:52.764Z,100086.34
2023-04-23T03:22:20.851Z,100083.19
2023-04-23T03:24:48.630Z,100082.08
2023-04-23T03:27:16.448Z,100078.31
2023-04-23T03:29:44.398Z,100082.65
2023-04-23T03:32:12.162Z,100082.88
2023-04-23T03:34:40.174Z,100077.21
2023-04-23T03:37:08.150Z,100077.98
2023-04-23T03:39:36.897Z,100079.83
2023-04-23T03:42:05.553Z,100073.70
2023-04-23T03:44:34.197Z,100076.92
2023-04-23T03:47:02.536Z,100073.86
2023-04-23T03:49:31.849Z,100076.58
2023-04-23T03:51:59.752Z,100073.02
2023-04-23T03:54:28.699Z,100076.41
2023-04-23T03:57:10.154Z,100077.09
2023-04-23T03:59:45.530Z,100080.89
2023-04-23T04:02:13.516Z,100081.98
2023-04-23T04:04:43.303Z,100081.37
2023-04-23T04:07:12.354Z,100084.96
2023-04-23T04:09:40.300Z,100086.63
2023-04-23T04:12:08.355Z,100088.02
2023-04-23T04:14:36.145Z,100089.36
2023-04-23T04:17:03.881Z,100088.36
2023-04-23T04:19:31.554Z,100093.14
2023-04-23T04:21:59.984Z,100091.53
2023-04-23T04:24:29.059Z,100087.94
2023-04-23T04:26:56.997Z,100084.48
2023-04-23T04:29:24.783Z,100082.14
2023-04-23T04:31:56.824Z,100082.88
2023-04-23T04:34:24.622Z,100084.05
2023-04-23T04:36:53.969Z,100084.61
2023-04-23T04:39:21.756Z,100085.73
2023-04-23T04:41:49.737Z,100089.38
2023-04-23T04:44:17.744Z,100087.66
2023-04-23T04:46:46.119Z,100090.27
2023-04-23T04:49:14.136Z,100087.10
2023-04-23T04:51:41.931Z,100087.42
2023-04-23T04:54:09.839Z,100088.93
2023-04-23T04:56:37.639Z,100085.73
2023-04-23T04:59:05.453Z,100082.83
2023-04-23T05:01:34.665Z,100084.68
2023-04-23T05:04:02.757Z,100080.64
2023-04-23T05:06:32.441Z,100080.07
2023-04-23T05:09:00.363Z,100082.18
2023-04-23T05:11:28.161Z,100080.89
2023-04-23T05:13:57.042Z,100084.01
2023-04-23T05:16:24.876Z,100085.38
2023-04-23T05:18:54.674Z,100084.68
2023-04-23T05:21:22.757Z,100086.17
2023-04-23T05:23:51.369Z,100088.91
2023-04-23T05:26:19.365Z,100091.30
2023-04-23T05:28:47.243Z,100082.67
2023-04-23T05:31:15.208Z,100082.38
2023-04-23T05:33:50.081Z,100078.64
2023-04-23T05:36:18.747Z,100079.16
2023-04-23T05:38:47.510Z,100080.39
2023-04-23T05:41:16.066Z,100079.12
2023-04-23T05:43:44.144Z,100079.71
2023-04-23T05:46:12.019Z,100078.06
2023-04-23T05:48:39.794Z,100080.59
2023-04-23T05:51:08.693Z,100081.64
2023-04-23T05:53:43.977Z,100082.35
2023-04-23T05:56:11.691Z,100078.96
2023-04-23T05:58:39.773Z,100076.86
2023-04-23T06:01:07.544Z,100073.58
2023-04-23T06:03:36.392Z,100077.48
2023-04-23T06:06:04.486Z,100074.95
2023-04-23T06:08:32.200Z,100074.23
2023-04-23T06:11:00.242Z,100076.00
2023-04-23T06:13:28.642Z,100076.09
2023-04-23T06:15:56.935Z,100074.13
2023-04-23T06:18:24.759Z,100079.70
2023-04-23T06:20:52.648Z,100079.15
2023-04-23T06:23:20.510Z,100073.48
2023-04-23T06:25:48.308Z,100073.91
2023-04-23T06:28:16.200Z,100071.37
2023-04-23T06:30:55.307Z,100074.80
2023-04-23T06:33:23.709Z,100074.24
2023-04-23T06:35:52.194Z,100076.20
2023-04-23T06:38:22.978Z,100074.52
2023-04-23T06:40:51.011Z,100075.53
2023-04-23T06:43:20.210Z,100072.64
2023-04-23T06:46:06.358Z,100070.80
2023-04-23T06:48:34.152Z,100068.11
2023-04-23T06:51:02.141Z,100068.23
2023-04-23T06:53:29.955Z,100064.68
2023-04-23T06:55:57.919Z,100062.23
2023-04-23T06:58:31.226Z,100060.47
2023-04-23T07:01:04.185Z,100061.42
2023-04-23T07:03:33.145Z,100059.12
2023-04-23T07:06:01.298Z,100061.84
2023-04-23T07:08:29.099Z,100059.74
2023-04-23T07:10:56.934Z,100063.41
2023-04-23T07:13:24.808Z,100060.14
2023-04-23T07:15:52.515Z,100058.16
2023-04-23T07:18:20.346Z,100052.23
2023-04-23T07:20:48.243Z,100054.78
2023-04-23T07:23:15.969Z,100046.76
2023-04-23T07:25:43.682Z,100049.66
2023-04-23T07:28:11.505Z,100049.66
2023-04-23T07:30:39.392Z,100049.57
2023-04-23T07:33:07.538Z,100047.35
2023-04-23T07:35:35.338Z,100044.12
2023-04-23T07:38:04.284Z,100041.73
2023-04-23T07:40:32.060Z,100040.60
2023-04-23T07:43:00.065Z,100037.95
2023-04-23T07:45:27.885Z,100042.79
2023-04-23T07:47:56.519Z,100039.64
2023-04-23T07:50:24.574Z,100039.95
2023-04-23T07:52:53.694Z,100038.82
2023-04-23T07:55:21.817Z,100036.85
2023-04-23T07:57:49.668Z,100036.27
2023-04-23T08:00:17.884Z,100030.46
2023-04-23T08:02:47.259Z,100033.23
2023-04-23T08:05:15.245Z,100032.11
2023-04-23T08:07:43.063Z,100030.69
2023-04-23T08:10:11.027Z,100029.36
2023-04-23T08:12:38.812Z,100027.70
2023-04-23T08:15:07.253Z,100025.61
2023-04-23T08:17:38.088Z,100016.64
2023-04-23T08:20:09.158Z,100030.05
2023-04-23T08:22:37.005Z,100022.29
2023-04-23T08:25:05.388Z,100017.33
2023-04-23T08:27:33.147Z,100019.30
2023-04-23T08:30:00.891Z,100016.54
2023-04-23T08:32:29.614Z,100014.65
2023-04-23T08:34:58.765Z,100015.16
2023-04-23T08:37:30.849Z,100015.85
2023-04-23T08:39:59.283Z,100014.36
2023-04-23T08:42:47.520Z,100019.32
2023-04-23T08:45:15.397Z,100013.21
2023-04-23T08:47:43.798Z,100012.02
2023-04-23T08:50:14.133Z,100010.30
2023-04-23T08:52:46.462Z,100002.41
2023-04-23T08:55:16.412Z,100003.77
2023-04-23T08:57:46.096Z,100002.58
2023-04-23T09:00:16.537Z,99999.98
2023-04-23T09:02:47.014Z,99998.16
2023-04-23T09:05:15.787Z,99995.57
2023-04-23T09:07:43.991Z,99993.08
2023-04-23T09:10:15.304Z,99991.23
2023-04-23T09:12:45.274Z,99982.15
2023-04-23T09:15:13.855Z,99984.47
2023-04-23T09:17:45.981Z,99982.10
2023-04-23T09:20:15.175Z,99982.63
2023-04-23T09:22:47.408Z,99978.29
2023-04-23T09:25:18.304Z,99974.73
2023-04-23T09:27:47.426Z,99976.91
2023-04-23T09:30:16.591Z,99979.11
2023-04-23T09:32:46.183Z,99976.11
2023-04-23T09:35:15.934Z,99973.16
2023-04-23T09:37:49.338Z,99971.92
2023-04-23T09:40:23.256Z,99964.27
2023-04-23T09:42:55.773Z,99962.87
2023-04-23T09:45:27.309Z,99958.73
2023-04-23T09:47:57.724Z,99956.91
2023-04-23T09:50:40.242Z,99950.95
2023-04-23T09:53:09.985Z,99950.41
2023-04-23T09:55:39.437Z,99944.71
2023-04-23T09:58:12.688Z,99940.46
2023-04-23T10:00:41.012Z,99941.92
2023-04-23T10:03:12.673Z,99935.56
2023-04-23T10:08:14.711Z,99934.65
2023-04-23T10:10:59.402Z,99928.70
2023-04-23T10:13:30.838Z,99928.02
2023-04-23T10:16:10.258Z,99924.39
2023-04-23T10:18:46.862Z,99913.30
2023-04-23T10:21:16.467Z,99915.89
2023-04-23T10:23:47.362Z,99912.30
2023-04-23T10:26:16.751Z,99903.03
2023-04-23T10:28:48.121Z,99910.60
2023-04-23T10:31:18.350Z,99905.52
2023-04-23T10:33:58.332Z,99905.25
2023-04-23T10:36:27.784Z,99902.23
2023-04-23T10:39:00.311Z,99898.10
2023-04-23T10:41:35.728Z,99892.48
2023-04-23T10:44:05.370Z,99890.50
2023-04-23T10:46:36.414Z,99888.69
2023-04-23T10:49:17.204Z,99881.48
2023-04-23T10:54:19.878Z,99875.55
2023-04-23T10:56:59.120Z,99875.58
2023-04-23T10:59:29.838Z,99874.44
2023-04-23T11:02:05.584Z,99872.98
2023-04-23T11:04:35.029Z,99870.58
2023-04-23T11:07:10.611Z,99866.37
2023-04-23T11:09:44.600Z,99867.41
2023-04-23T11:12:24.746Z,99864.35
2023-04-23T11:14:54.872Z,99863.54
2023-04-23T11:17:23.511Z,99863.83
2023-04-23T11:20:15.106Z,99857.41
2023-04-23T11:22:45.273Z,99850.95
2023-04-23T11:25:20.348Z,99848.27
2023-04-23T11:27:49.668Z,99842.69
2023-04-23T11:30:20.966Z,99843.97
2023-04-23T11:32:55.533Z,99846.60
2023-04-23T11:35:29.447Z,99842.69
2023-04-23T11:37:57.435Z,99837.51
2023-04-23T11:40:26.156Z,99839.21
2023-04-23T11:42:54.975Z,99836.62
2023-04-23T11:45:27.724Z,99832.58
2023-04-23T11:47:57.587Z,99831.63
2023-04-23T11:50:34.166Z,99831.37
2023-04-23T11:53:07.554Z,99833.48
2023-04-23T11:55:35.412Z,99826.93
2023-04-23T11:58:03.930Z,99827.11
2023-04-23T12:00:31.626Z,99822.42
2023-04-23T12:03:04.576Z,99825.27
2023-04-23T12:05:36.823Z,99824.98
2023-04-23T12:08:16.691Z,99823.04
2023-04-23T12:10:47.851Z,99817.46
2023-04-23T12:13:27.371Z,99821.98
2023-04-23T12:16:05.453Z,99813.57
2023-04-23T12:18:42.405Z,99813.90
2023-04-23T12:21:13.427Z,99799.44
2023-04-23T12:23:45.192Z,99810.38
2023-04-23T12:26:15.799Z,99799.93
2023-04-23T12:28:53.722Z,99797.73
2023-04-23T12:31:28.994Z,99801.86
2023-04-23T12:34:07.885Z,99797.70
2023-04-23T12:36:41.025Z,99797.23
2023-04-23T12:39:31.775Z,99792.13
2023-04-23T12:42:04.771Z,99793.27
2023-04-23T12:44:35.369Z,99788.41
2023-04-23T12:47:05.950Z,99783.08
2023-04-23T12:49:35.747Z,99781.05
2023-04-23T12:52:04.855Z,99778.86
2023-04-23T12:54:38.429Z,99780.77
2023-04-23T12:57:08.341Z,99775.00
2023-04-23T12:59:36.247Z,99774.33
2023-04-23T13:02:04.692Z,99771.25
2023-04-23T13:04:34.480Z,99771.48
2023-04-23T13:07:03.109Z,99759.60
2023-04-23T13:09:31.013Z,99763.35
2023-04-23T13:12:00.495Z,99756.08
2023-04-23T13:14:29.219Z,99754.09
2023-04-23T13:16:59.285Z,99750.80
2023-04-23T13:19:27.118Z,99747.58
2023-04-23T13:21:54.869Z,99735.64
2023-04-23T13:24:22.599Z,99738.17
2023-04-23T13:26:50.446Z,99736.64
2023-04-23T13:29:18.171Z,99738.28
2023-04-23T13:31:45.939Z,99731.95
2023-04-23T13:34:13.730Z,99728.05
2023-04-23T13:36:41.764Z,99727.02
2023-04-23T13:55:26.641Z,99708.21
2023-04-23T13:57:57.835Z,99706.82
2023-04-23T14:00:28.636Z,99702.27
2023-04-23T14:02:56.669Z,99697.62
2023-04-23T14:05:24.766Z,99690.87
2023-04-23T14:07:52.571Z,99688.28
2023-04-23T14:10:20.388Z,99684.39
2023-04-23T14:12:49.053Z,99686.48
2023-04-23T14:15:17.466Z,99683.48
2023-04-23T14:17:45.949Z,99677.48
2023-04-23T14:20:15.656Z,99681.91
2023-04-23T14:22:44.209Z,99677.69
2023-04-23T14:25:23.626Z,99675.64
2023-04-23T14:27:55.172Z,99677.01
2023-04-23T14:30:26.254Z,99680.91
2023-04-23T14:32:56.450Z,99674.14
2023-04-23T14:35:39.529Z,99674.73
2023-04-23T14:38:10.702Z,99671.20
2023-04-23T14:40:38.515Z,99672.51
2023-04-23T14:43:14.919Z,99667.77
2023-04-23T14:45:46.032Z,99670.30
2023-04-23T14:48:13.878Z,99667.25
2023-04-23T14:50:42.107Z,99665.62
2023-04-23T14:53:10.802Z,99662.98
2023-04-23T14:55:40.180Z,99664.11
2023-04-23T14:58:08.146Z,99657.02
2023-04-23T15:00:36.128Z,99652.95
2023-04-23T15:03:10.562Z,99652.56
2023-04-23T15:05:40.055Z,99652.16
2023-04-23T15:08:07.992Z,99650.99
2023-04-23T15:10:36.113Z,99647.42
2023-04-23T15:13:11.411Z,99650.24
2023-04-23T15:15:55.526Z,99643.11
2023-04-23T15:18:23.389Z,99645.28
2023-04-23T15:20:51.373Z,99638.98
2023-04-23T15:23:21.565Z,99639.14
2023-04-23T15:25:49.851Z,99635.55
2023-04-23T15:28:17.912Z,99636.67
2023-04-23T15:30:47.566Z,99635.38
2023-04-23T15:33:15.352Z,99636.29
2023-04-23T15:35:43.120Z,99634.86
2023-04-23T15:38:10.845Z,99630.34
2023-04-23T15:40:42.506Z,99629.29
2023-04-23T15:43:13.381Z,99629.56
2023-04-23T15:45:41.512Z,99626.59
2023-04-23T15:48:10.113Z,99629.98
2023-04-23T15:50:37.960Z,99626.30
2023-04-23T15:53:05.844Z,99624.21
2023-04-23T15:55:34.182Z,99624.38
2023-04-23T15:58:03.585Z,99620.02
2023-04-23T16:00:33.672Z,99612.77
2023-04-23T16:03:04.481Z,99611.50
2023-04-23T16:05:32.830Z,99613.55
2023-04-23T16:08:00.732Z,99611.48
2023-04-23T16:10:31.490Z,99610.55
2023-04-23T16:12:59.527Z,99609.79
2023-04-23T16:15:28.165Z,99611.77
2023-04-23T16:17:56.454Z,99608.83
2023-04-23T16:20:24.896Z,99603.44
2023-04-23T16:22:52.882Z,99602.05
2023-04-23T16:25:21.044Z,99601.86
2023-04-23T16:27:49.035Z,99603.22
2023-04-23T16:30:16.957Z,99598.40
2023-04-23T16:32:44.957Z,99594.80
2023-04-23T16:35:12.824Z,99595.11
2023-04-23T16:37:40.559Z,99595.88
2023-04-23T16:40:09.159Z,99597.12
2023-04-23T16:42:37.013Z,99595.50
2023-04-23T16:45:05.214Z,99593.36
2023-04-23T16:47:33.366Z,99593.00
2023-04-23T16:50:02.038Z,99594.13
2023-04-23T16:52:29.814Z,99595.91
2023-04-23T16:54:57.593Z,99590.58
2023-04-23T16:57:26.097Z,99589.10
2023-04-23T16:59:54.559Z,99591.45
2023-04-23T17:02:22.542Z,99587.74
2023-04-23T17:04:50.526Z,99593.23
2023-04-23T17:07:18.406Z,99590.54
2023-04-23T17:09:46.378Z,99588.70
2023-04-23T17:12:14.109Z,99589.38
2023-04-23T17:14:42.080Z,99587.20
2023-04-23T17:17:10.278Z,99586.86
2023-04-23T17:19:38.169Z,99586.27
2023-04-23T17:22:07.781Z,99588.70
2023-04-23T17:24:36.988Z,99584.11
2023-04-23T17:27:06.410Z,99582.79
2023-04-23T17:29:34.297Z,99581.46
2023-04-23T17:32:02.923Z,99576.11
2023-04-23T17:34:31.021Z,99579.81
2023-04-23T17:36:58.825Z,99580.90
2023-04-23T17:39:26.563Z,99574.98
2023-04-23T17:41:56.113Z,99570.63
2023-04-23T17:44:23.875Z,99574.41
2023-04-23T17:46:54.070Z,99572.14
2023-04-23T17:49:22.492Z,99565.69
2023-04-23T17:51:50.411Z,99567.70
2023-04-23T17:54:18.308Z,99564.81
2023-04-23T17:56:46.198Z,99567.78
2023-04-23T17:59:14.079Z,99567.90
2023-04-23T18:01:42.098Z,99569.05
2023-04-23T18:04:10.257Z,99574.71
2023-04-23T18:06:38.095Z,99573.90
2023-04-23T18:09:06.066Z,99576.52
2023-04-23T18:11:33.917Z,99576.55
2023-04-23T18:14:02.181Z,99579.11
2023-04-23T18:16:30.021Z,99579.20
2023-04-23T18:18:57.820Z,99577.98
2023-04-23T18:21:26.274Z,99579.96
2023-04-23T18:23:53.993Z,99580.75
2023-04-23T18:26:22.283Z,99579.84
2023-04-23T18:28:49.978Z,99579.70
2023-04-23T18:31:18.320Z,99581.64
2023-04-23T18:33:59.620Z,99583.46
2023-04-23T18:36:37.501Z,99582.61
2023-04-23T18:39:07.395Z,99580.87
2023-04-23T18:41:36.127Z,99585.03
2023-04-23T18:44:03.989Z,99583.73
2023-04-23T18:46:32.066Z,99584.05
2023-04-23T18:49:08.625Z,99581.49
2023-04-23T18:51:51.111Z,99580.16
2023-04-23T18:54:18.825Z,99581.35
2023-04-23T18:56:47.294Z,99583.88
2023-04-23T18:59:15.115Z,99584.69
2023-04-23T19:01:44.691Z,99583.52
2023-04-23T19:04:12.725Z,99583.75
2023-04-23T19:06:41.285Z,99583.04
2023-04-23T19:09:09.044Z,99582.65
2023-04-23T19:11:38.146Z,99582.58
2023-04-23T19:14:05.966Z,99582.29
2023-04-23T19:16:34.088Z,99584.23
2023-04-23T19:19:01.861Z,99585.29
2023-04-23T19:21:29.680Z,99585.02
2023-04-23T19:23:57.424Z,99580.31
2023-04-23T19:26:25.125Z,99581.33
2023-04-23T19:28:53.550Z,99581.78
2023-04-23T19:31:21.361Z,99584.66
2023-04-23T19:33:49.332Z,99583.36
2023-04-23T19:36:17.184Z,99580.20
2023-04-23T19:38:45.229Z,99581.30
2023-04-23T19:41:13.014Z,99580.09
2023-04-23T19:43:41.495Z,99577.11
2023-04-23T19:46:09.208Z,99580.25
2023-04-23T19:48:37.412Z,99578.56
2023-04-23T19:51:05.311Z,99580.24
2023-04-23T19:53:33.200Z,99576.92
2023-04-23T19:56:00.985Z,99574.60
2023-04-23T19:58:28.724Z,99572.82
2023-04-23T20:00:56.812Z,99572.62
2023-04-23T20:03:24.831Z,99569.05
2023-04-23T20:05:56.246Z,99570.99
2023-04-23T20:08:29.471Z,99569.24
2023-04-23T20:10:57.369Z,99569.70
2023-04-23T20:13:25.194Z,99568.09
2023-04-23T20:15:53.762Z,99565.61
2023-04-23T20:18:21.708Z,99564.86
2023-04-23T20:20:49.873Z,99563.70
2023-04-23T20:23:17.704Z,99562.16
2023-04-23T20:25:45.803Z,99562.23
2023-04-23T20:28:13.652Z,99565.52
2023-04-23T20:30:41.457Z,99562.56
2023-04-23T20:33:10.585Z,99565.80
2023-04-23T20:35:39.766Z,99567.05
2023-04-23T20:38:07.927Z,99570.66
2023-04-23T20:40:35.649Z,99577.65
2023-04-23T20:43:04.689Z,99597.58
2023-04-23T20:45:34.196Z,99587.48
2023-04-23T20:48:02.406Z,99572.23
2023-04-23T20:50:30.453Z,99569.39
2023-04-23T20:52:58.215Z,99568.17
2023-04-23T20:55:26.020Z,99573.30
2023-04-23T20:57:53.791Z,99572.77
2023-04-23T21:00:22.371Z,99575.48
2023-04-23T21:02:50.248Z,99599.37
2023-04-23T21:05:18.156Z,99585.94
2023-04-23T21:07:46.484Z,99569.63
2023-04-23T21:10:14.448Z,99590.70
2023-04-23T21:12:43.401Z,99595.89
2023-04-23T21:15:13.896Z,99577.33
2023-04-23T21:17:41.936Z,99581.29
2023-04-23T21:20:10.445Z,99576.61
2023-04-23T21:22:38.228Z,99575.64
2023-04-23T21:25:06.683Z,99566.72
2023-04-23T21:27:34.504Z,99566.30
2023-04-23T21:30:08.649Z,99560.45
2023-04-23T21:32:36.548Z,99557.12
2023-04-23T21:35:05.071Z,99558.45
2023-04-23T21:37:33.334Z,99554.73
2023-04-23T21:40:01.270Z,99552.59
2023-04-23T21:42:29.058Z,99552.70
2023-04-23T21:44:56.797Z,99553.17
2023-04-23T21:47:24.562Z,99552.70
2023-04-23T21:49:52.483Z,99549.84
2023-04-23T21:52:20.460Z,99547.46
2023-04-23T21:54:48.281Z,99543.85
2023-04-23T21:57:16.119Z,99544.07
2023-04-23T21:59:44.099Z,99545.21
2023-04-23T22:02:12.269Z,99547.40
2023-04-23T22:04:40.439Z,99553.89
2023-04-23T22:07:12.513Z,99552.30
2023-04-23T22:09:41.501Z,99552.76
2023-04-23T22:12:10.015Z,99553.73
2023-04-23T22:14:37.891Z,99553.97
2023-04-23T22:17:07.541Z,99564.70
2023-04-23T22:19:35.852Z,99567.16
2023-04-23T22:22:03.761Z,99564.42
2023-04-23T22:24:31.467Z,99567.09
2023-04-23T22:26:59.816Z,99561.94
2023-04-23T22:29:27.652Z,99559.42
2023-04-23T22:31:55.414Z,99554.98
2023-04-23T22:34:24.923Z,99550.39
2023-04-23T22:36:52.731Z,99548.96
2023-04-23T22:39:20.559Z,99551.06
2023-04-23T22:41:48.437Z,99552.33
2023-04-23T22:44:16.289Z,99551.22
2023-04-23T22:46:45.812Z,99552.82
2023-04-23T22:49:14.325Z,99550.60
2023-04-23T22:51:42.126Z,99549.15
2023-04-23T22:54:10.277Z,99549.06
2023-04-23T22:56:38.183Z,99547.44
2023-04-23T22:59:06.166Z,99545.70
2023-04-23T23:01:34.550Z,99544.20
2023-04-23T23:04:02.426Z,99548.63
2023-04-23T23:06:30.580Z,99545.90
2023-04-23T23:08:58.315Z,99546.34
2023-04-23T23:11:28.733Z,99540.91
2023-04-23T23:13:56.503Z,99539.46
2023-04-23T23:16:24.435Z,99539.83
2023-04-23T23:18:52.398Z,99535.94
2023-04-23T23:21:20.727Z,99534.21
2023-04-23T23:23:48.571Z,99530.60
2023-04-23T23:26:16.393Z,99531.83
2023-04-23T23:28:44.364Z,99532.23
2023-04-23T23:31:12.235Z,99531.36
2023-04-23T23:33:40.166Z,99523.20
2023-04-23T23:36:09.016Z,99522.69
2023-04-23T23:38:36.787Z,99518.13
2023-04-23T23:41:04.566Z,99516.48
2023-04-23T23:43:32.329Z,99512.33
2023-04-23T23:46:00.057Z,99513.80
2023-04-23T23:48:27.998Z,99512.29
2023-04-23T23:50:55.762Z,99507.60
2023-04-23T23:53:23.788Z,99505.00
2023-04-23T23:55:51.620Z,99501.74
2023-04-23T23:58:19.439Z,99496.48
